sensor_id;sensor_type;location;lat;lon;timestamp;P1;durP1;ratioP1;P2;durP2;ratioP2
15516;SDS011;7860;52.030;5.572;2022-07-03T00:03:11;7.09;;;3.54;;
15516;SDS011;7860;52.030;5.572;2022-07-03T00:03:11;8.95;;;3.77;;
15516;SDS011;7860;52.030;5.572;2022-07-03T00:03:16;8.83;;;3.49;;
15516;SDS011;7860;52.030;5.572;2022-07-03T00:03:16;7.02;;;3.70;;
15516;SDS011;7860;52.030;5.572;2022-07-03T00:04:11;8.36;;;3.49;;
15516;SDS011;7860;52.030;5.572;2022-07-03T00:05:11;6.98;;;3.49;;
15516;SDS011;7860;52.030;5.572;2022-07-03T00:06:11;8.09;;;3.73;;
15516;SDS011;7860;52.030;5.572;2022-07-03T00:07:11;7.36;;;3.63;;
15516;SDS011;7860;52.030;5.572;2022-07-03T00:08:11;6.97;;;3.42;;
15516;SDS011;7860;52.030;5.572;2022-07-03T00:09:11;7.94;;;3.70;;
15516;SDS011;7860;52.030;5.572;2022-07-03T00:10:12;9.11;;;3.86;;
15516;SDS011;7860;52.030;5.572;2022-07-03T00:11:14;7.31;;;3.60;;
15516;SDS011;7860;52.030;5.572;2022-07-03T00:12:13;6.29;;;3.52;;
15516;SDS011;7860;52.030;5.572;2022-07-03T00:13:13;7.19;;;3.78;;
15516;SDS011;7860;52.030;5.572;2022-07-03T00:14:13;7.96;;;3.86;;
15516;SDS011;7860;52.030;5.572;2022-07-03T00:15:13;9.19;;;3.68;;
15516;SDS011;7860;52.030;5.572;2022-07-03T00:16:13;7.67;;;3.87;;
15516;SDS011;7860;52.030;5.572;2022-07-03T00:17:13;8.64;;;4.03;;
15516;SDS011;7860;52.030;5.572;2022-07-03T00:18:13;7.05;;;3.53;;
15516;SDS011;7860;52.030;5.572;2022-07-03T00:19:13;7.54;;;3.30;;
15516;SDS011;7860;52.030;5.572;2022-07-03T00:20:13;6.75;;;3.33;;
15516;SDS011;7860;52.030;5.572;2022-07-03T00:21:15;5.90;;;2.90;;
15516;SDS011;7860;52.030;5.572;2022-07-03T00:22:14;5.55;;;2.73;;
15516;SDS011;7860;52.030;5.572;2022-07-03T00:23:16;5.37;;;2.76;;
15516;SDS011;7860;52.030;5.572;2022-07-03T00:24:16;6.38;;;2.73;;
15516;SDS011;7860;52.030;5.572;2022-07-03T00:25:13;6.19;;;2.81;;
15516;SDS011;7860;52.030;5.572;2022-07-03T00:26:13;5.65;;;2.88;;
15516;SDS011;7860;52.030;5.572;2022-07-03T00:27:14;7.42;;;2.99;;
15516;SDS011;7860;52.030;5.572;2022-07-03T00:28:13;5.42;;;2.97;;
15516;SDS011;7860;52.030;5.572;2022-07-03T00:29:14;6.83;;;2.87;;
15516;SDS011;7860;52.030;5.572;2022-07-03T00:30:14;7.17;;;3.33;;
15516;SDS011;7860;52.030;5.572;2022-07-03T00:31:14;7.24;;;3.52;;
15516;SDS011;7860;52.030;5.572;2022-07-03T00:32:21;6.80;;;3.52;;
15516;SDS011;7860;52.030;5.572;2022-07-03T00:33:14;6.61;;;3.23;;
15516;SDS011;7860;52.030;5.572;2022-07-03T00:34:14;6.32;;;3.07;;
15516;SDS011;7860;52.030;5.572;2022-07-03T00:35:15;6.24;;;3.03;;
15516;SDS011;7860;52.030;5.572;2022-07-03T00:36:14;6.28;;;3.08;;
15516;SDS011;7860;52.030;5.572;2022-07-03T00:37:14;6.57;;;3.37;;
15516;SDS011;7860;52.030;5.572;2022-07-03T00:38:14;7.01;;;3.38;;
15516;SDS011;7860;52.030;5.572;2022-07-03T00:39:14;6.88;;;3.45;;
15516;SDS011;7860;52.030;5.572;2022-07-03T00:40:14;6.54;;;3.35;;
15516;SDS011;7860;52.030;5.572;2022-07-03T00:41:23;6.28;;;3.44;;
15516;SDS011;7860;52.030;5.572;2022-07-03T00:42:15;7.45;;;3.39;;
15516;SDS011;7860;52.030;5.572;2022-07-03T00:43:15;5.76;;;3.23;;
15516;SDS011;7860;52.030;5.572;2022-07-03T00:44:14;7.14;;;3.69;;
15516;SDS011;7860;52.030;5.572;2022-07-03T00:45:15;6.61;;;3.33;;
15516;SDS011;7860;52.030;5.572;2022-07-03T00:46:15;6.70;;;3.64;;
15516;SDS011;7860;52.030;5.572;2022-07-03T00:47:15;8.14;;;3.65;;
15516;SDS011;7860;52.030;5.572;2022-07-03T00:48:16;7.52;;;3.72;;
15516;SDS011;7860;52.030;5.572;2022-07-03T00:49:15;6.68;;;3.51;;
15516;SDS011;7860;52.030;5.572;2022-07-03T00:50:15;7.81;;;3.98;;
15516;SDS011;7860;52.030;5.572;2022-07-03T00:51:15;7.34;;;3.91;;
15516;SDS011;7860;52.030;5.572;2022-07-03T00:52:17;7.87;;;3.76;;
15516;SDS011;7860;52.030;5.572;2022-07-03T00:53:18;8.88;;;3.90;;
15516;SDS011;7860;52.030;5.572;2022-07-03T00:54:16;7.09;;;4.06;;
15516;SDS011;7860;52.030;5.572;2022-07-03T00:55:16;7.62;;;3.87;;
15516;SDS011;7860;52.030;5.572;2022-07-03T00:56:16;7.39;;;3.92;;
15516;SDS011;7860;52.030;5.572;2022-07-03T00:57:17;10.32;;;3.65;;
15516;SDS011;7860;52.030;5.572;2022-07-03T00:58:16;9.08;;;4.12;;
15516;SDS011;7860;52.030;5.572;2022-07-03T00:59:17;7.52;;;3.85;;
15516;SDS011;7860;52.030;5.572;2022-07-03T01:00:16;7.26;;;3.77;;
15516;SDS011;7860;52.030;5.572;2022-07-03T01:01:16;10.26;;;3.94;;
15516;SDS011;7860;52.030;5.572;2022-07-03T01:02:21;7.28;;;3.75;;
15516;SDS011;7860;52.030;5.572;2022-07-03T01:03:17;7.91;;;3.67;;
15516;SDS011;7860;52.030;5.572;2022-07-03T01:04:24;8.77;;;3.91;;
15516;SDS011;7860;52.030;5.572;2022-07-03T01:05:19;7.16;;;3.82;;
15516;SDS011;7860;52.030;5.572;2022-07-03T01:06:17;7.84;;;3.78;;
15516;SDS011;7860;52.030;5.572;2022-07-03T01:07:18;7.43;;;3.91;;
15516;SDS011;7860;52.030;5.572;2022-07-03T01:08:19;7.71;;;3.83;;
15516;SDS011;7860;52.030;5.572;2022-07-03T01:09:17;7.29;;;3.72;;
15516;SDS011;7860;52.030;5.572;2022-07-03T01:10:22;7.30;;;4.02;;
15516;SDS011;7860;52.030;5.572;2022-07-03T01:11:20;8.52;;;3.84;;
15516;SDS011;7860;52.030;5.572;2022-07-03T01:12:19;7.60;;;3.71;;
15516;SDS011;7860;52.030;5.572;2022-07-03T01:13:18;6.77;;;3.68;;
15516;SDS011;7860;52.030;5.572;2022-07-03T01:14:18;7.40;;;3.67;;
15516;SDS011;7860;52.030;5.572;2022-07-03T01:15:19;8.01;;;3.85;;
15516;SDS011;7860;52.030;5.572;2022-07-03T01:16:19;8.08;;;3.66;;
15516;SDS011;7860;52.030;5.572;2022-07-03T01:17:20;7.54;;;3.72;;
15516;SDS011;7860;52.030;5.572;2022-07-03T01:18:21;7.83;;;3.96;;
15516;SDS011;7860;52.030;5.572;2022-07-03T01:19:22;7.83;;;3.89;;
15516;SDS011;7860;52.030;5.572;2022-07-03T01:20:18;8.06;;;3.80;;
15516;SDS011;7860;52.030;5.572;2022-07-03T01:21:19;8.24;;;3.61;;
15516;SDS011;7860;52.030;5.572;2022-07-03T01:22:26;7.42;;;3.26;;
15516;SDS011;7860;52.030;5.572;2022-07-03T01:23:19;9.72;;;3.71;;
15516;SDS011;7860;52.030;5.572;2022-07-03T01:24:26;8.11;;;3.70;;
15516;SDS011;7860;52.030;5.572;2022-07-03T01:25:22;6.13;;;3.36;;
15516;SDS011;7860;52.030;5.572;2022-07-03T01:26:18;8.69;;;3.67;;
15516;SDS011;7860;52.030;5.572;2022-07-03T01:27:19;7.76;;;3.78;;
15516;SDS011;7860;52.030;5.572;2022-07-03T01:28:19;6.71;;;3.53;;
15516;SDS011;7860;52.030;5.572;2022-07-03T01:29:21;6.98;;;3.77;;
15516;SDS011;7860;52.030;5.572;2022-07-03T01:30:18;6.79;;;3.46;;
15516;SDS011;7860;52.030;5.572;2022-07-03T01:31:19;6.85;;;3.28;;
15516;SDS011;7860;52.030;5.572;2022-07-03T01:32:19;6.22;;;3.43;;
15516;SDS011;7860;52.030;5.572;2022-07-03T01:33:19;6.83;;;3.53;;
15516;SDS011;7860;52.030;5.572;2022-07-03T01:34:18;6.77;;;3.50;;
15516;SDS011;7860;52.030;5.572;2022-07-03T01:35:20;6.47;;;3.36;;
15516;SDS011;7860;52.030;5.572;2022-07-03T01:36:19;6.71;;;3.28;;
15516;SDS011;7860;52.030;5.572;2022-07-03T01:37:20;6.62;;;3.35;;
15516;SDS011;7860;52.030;5.572;2022-07-03T01:38:19;7.85;;;3.48;;
15516;SDS011;7860;52.030;5.572;2022-07-03T01:39:19;6.07;;;3.09;;
15516;SDS011;7860;52.030;5.572;2022-07-03T01:40:19;8.57;;;3.50;;
15516;SDS011;7860;52.030;5.572;2022-07-03T01:41:19;6.07;;;3.42;;
15516;SDS011;7860;52.030;5.572;2022-07-03T01:42:19;6.35;;;3.14;;
15516;SDS011;7860;52.030;5.572;2022-07-03T01:43:19;6.74;;;3.48;;
15516;SDS011;7860;52.030;5.572;2022-07-03T01:44:19;7.29;;;3.24;;
15516;SDS011;7860;52.030;5.572;2022-07-03T01:45:19;7.69;;;3.53;;
15516;SDS011;7860;52.030;5.572;2022-07-03T01:46:20;6.78;;;3.24;;
15516;SDS011;7860;52.030;5.572;2022-07-03T01:47:19;6.42;;;3.30;;
15516;SDS011;7860;52.030;5.572;2022-07-03T01:48:19;6.56;;;3.38;;
15516;SDS011;7860;52.030;5.572;2022-07-03T01:49:19;7.13;;;3.69;;
15516;SDS011;7860;52.030;5.572;2022-07-03T01:50:19;8.17;;;3.34;;
15516;SDS011;7860;52.030;5.572;2022-07-03T01:51:19;6.77;;;3.16;;
15516;SDS011;7860;52.030;5.572;2022-07-03T01:52:20;7.78;;;3.54;;
15516;SDS011;7860;52.030;5.572;2022-07-03T01:53:20;5.81;;;3.18;;
15516;SDS011;7860;52.030;5.572;2022-07-03T01:54:20;6.86;;;3.32;;
15516;SDS011;7860;52.030;5.572;2022-07-03T01:55:20;6.73;;;3.39;;
15516;SDS011;7860;52.030;5.572;2022-07-03T01:56:20;6.62;;;3.61;;
15516;SDS011;7860;52.030;5.572;2022-07-03T01:57:20;6.56;;;3.40;;
15516;SDS011;7860;52.030;5.572;2022-07-03T01:58:20;7.71;;;3.57;;
15516;SDS011;7860;52.030;5.572;2022-07-03T01:59:20;7.51;;;3.27;;
15516;SDS011;7860;52.030;5.572;2022-07-03T02:00:21;5.69;;;3.19;;
15516;SDS011;7860;52.030;5.572;2022-07-03T02:01:21;6.93;;;3.34;;
15516;SDS011;7860;52.030;5.572;2022-07-03T02:02:22;6.76;;;3.33;;
15516;SDS011;7860;52.030;5.572;2022-07-03T02:03:21;8.47;;;3.57;;
15516;SDS011;7860;52.030;5.572;2022-07-03T02:04:22;6.76;;;3.22;;
15516;SDS011;7860;52.030;5.572;2022-07-03T02:05:24;8.30;;;3.48;;
15516;SDS011;7860;52.030;5.572;2022-07-03T02:06:22;7.16;;;3.23;;
15516;SDS011;7860;52.030;5.572;2022-07-03T02:07:21;6.78;;;3.25;;
15516;SDS011;7860;52.030;5.572;2022-07-03T02:08:25;7.18;;;3.11;;
15516;SDS011;7860;52.030;5.572;2022-07-03T02:09:21;6.22;;;3.38;;
15516;SDS011;7860;52.030;5.572;2022-07-03T02:10:22;7.12;;;3.18;;
15516;SDS011;7860;52.030;5.572;2022-07-03T02:11:21;8.37;;;3.46;;
15516;SDS011;7860;52.030;5.572;2022-07-03T02:12:21;6.76;;;3.17;;
15516;SDS011;7860;52.030;5.572;2022-07-03T02:13:23;7.26;;;3.29;;
15516;SDS011;7860;52.030;5.572;2022-07-03T02:14:22;6.62;;;3.26;;
15516;SDS011;7860;52.030;5.572;2022-07-03T02:15:24;7.57;;;3.36;;
15516;SDS011;7860;52.030;5.572;2022-07-03T02:16:22;6.02;;;3.32;;
15516;SDS011;7860;52.030;5.572;2022-07-03T02:17:21;5.98;;;3.10;;
15516;SDS011;7860;52.030;5.572;2022-07-03T02:18:24;6.81;;;3.18;;
15516;SDS011;7860;52.030;5.572;2022-07-03T02:19:22;7.81;;;3.40;;
15516;SDS011;7860;52.030;5.572;2022-07-03T02:20:21;6.72;;;2.98;;
15516;SDS011;7860;52.030;5.572;2022-07-03T02:21:22;7.56;;;3.07;;
15516;SDS011;7860;52.030;5.572;2022-07-03T02:22:23;7.57;;;3.17;;
15516;SDS011;7860;52.030;5.572;2022-07-03T02:23:21;6.54;;;2.98;;
15516;SDS011;7860;52.030;5.572;2022-07-03T02:24:22;6.12;;;3.07;;
15516;SDS011;7860;52.030;5.572;2022-07-03T02:25:22;6.59;;;3.08;;
15516;SDS011;7860;52.030;5.572;2022-07-03T02:26:24;8.03;;;3.49;;
15516;SDS011;7860;52.030;5.572;2022-07-03T02:27:22;7.14;;;3.37;;
15516;SDS011;7860;52.030;5.572;2022-07-03T02:28:22;6.39;;;3.08;;
15516;SDS011;7860;52.030;5.572;2022-07-03T02:29:26;6.91;;;3.31;;
15516;SDS011;7860;52.030;5.572;2022-07-03T02:30:22;6.36;;;3.22;;
15516;SDS011;7860;52.030;5.572;2022-07-03T02:31:23;7.90;;;3.17;;
15516;SDS011;7860;52.030;5.572;2022-07-03T02:32:22;7.68;;;3.45;;
15516;SDS011;7860;52.030;5.572;2022-07-03T02:33:24;5.48;;;3.05;;
15516;SDS011;7860;52.030;5.572;2022-07-03T02:34:23;7.10;;;3.11;;
15516;SDS011;7860;52.030;5.572;2022-07-03T02:35:25;5.64;;;2.84;;
15516;SDS011;7860;52.030;5.572;2022-07-03T02:36:22;6.50;;;3.01;;
15516;SDS011;7860;52.030;5.572;2022-07-03T02:37:22;7.40;;;3.36;;
15516;SDS011;7860;52.030;5.572;2022-07-03T02:38:22;6.13;;;3.09;;
15516;SDS011;7860;52.030;5.572;2022-07-03T02:39:23;6.44;;;2.96;;
15516;SDS011;7860;52.030;5.572;2022-07-03T02:40:24;5.12;;;2.91;;
15516;SDS011;7860;52.030;5.572;2022-07-03T02:41:23;6.42;;;3.21;;
15516;SDS011;7860;52.030;5.572;2022-07-03T02:42:24;7.88;;;3.24;;
15516;SDS011;7860;52.030;5.572;2022-07-03T02:43:23;6.32;;;3.07;;
15516;SDS011;7860;52.030;5.572;2022-07-03T02:44:23;6.55;;;3.13;;
15516;SDS011;7860;52.030;5.572;2022-07-03T02:45:22;5.30;;;3.08;;
15516;SDS011;7860;52.030;5.572;2022-07-03T02:46:24;6.36;;;3.09;;
15516;SDS011;7860;52.030;5.572;2022-07-03T02:47:25;7.25;;;3.07;;
15516;SDS011;7860;52.030;5.572;2022-07-03T02:48:24;7.79;;;3.17;;
15516;SDS011;7860;52.030;5.572;2022-07-03T02:49:30;6.17;;;3.15;;
15516;SDS011;7860;52.030;5.572;2022-07-03T02:50:23;6.82;;;3.09;;
15516;SDS011;7860;52.030;5.572;2022-07-03T02:51:25;7.22;;;3.29;;
15516;SDS011;7860;52.030;5.572;2022-07-03T02:52:26;6.55;;;3.26;;
15516;SDS011;7860;52.030;5.572;2022-07-03T02:53:24;6.19;;;3.37;;
15516;SDS011;7860;52.030;5.572;2022-07-03T02:54:23;6.20;;;3.35;;
15516;SDS011;7860;52.030;5.572;2022-07-03T02:55:26;5.97;;;2.93;;
15516;SDS011;7860;52.030;5.572;2022-07-03T02:56:32;6.80;;;3.15;;
15516;SDS011;7860;52.030;5.572;2022-07-03T02:57:23;6.41;;;3.05;;
15516;SDS011;7860;52.030;5.572;2022-07-03T02:58:27;6.26;;;3.28;;
15516;SDS011;7860;52.030;5.572;2022-07-03T02:59:27;7.32;;;3.24;;
15516;SDS011;7860;52.030;5.572;2022-07-03T03:00:23;6.85;;;2.92;;
15516;SDS011;7860;52.030;5.572;2022-07-03T03:01:24;7.44;;;3.17;;
15516;SDS011;7860;52.030;5.572;2022-07-03T03:02:30;5.84;;;3.08;;
15516;SDS011;7860;52.030;5.572;2022-07-03T03:03:24;6.66;;;2.99;;
15516;SDS011;7860;52.030;5.572;2022-07-03T03:04:25;6.89;;;2.92;;
15516;SDS011;7860;52.030;5.572;2022-07-03T03:05:26;7.23;;;3.22;;
15516;SDS011;7860;52.030;5.572;2022-07-03T03:06:23;6.13;;;3.07;;
15516;SDS011;7860;52.030;5.572;2022-07-03T03:07:26;7.43;;;3.31;;
15516;SDS011;7860;52.030;5.572;2022-07-03T03:08:31;5.84;;;2.95;;
15516;SDS011;7860;52.030;5.572;2022-07-03T03:09:25;6.83;;;3.15;;
15516;SDS011;7860;52.030;5.572;2022-07-03T03:10:24;6.42;;;2.86;;
15516;SDS011;7860;52.030;5.572;2022-07-03T03:11:28;7.19;;;3.00;;
15516;SDS011;7860;52.030;5.572;2022-07-03T03:12:27;6.84;;;3.10;;
15516;SDS011;7860;52.030;5.572;2022-07-03T03:13:24;6.17;;;2.85;;
15516;SDS011;7860;52.030;5.572;2022-07-03T03:14:24;8.76;;;3.35;;
15516;SDS011;7860;52.030;5.572;2022-07-03T03:15:24;5.99;;;3.19;;
15516;SDS011;7860;52.030;5.572;2022-07-03T03:16:24;6.17;;;2.97;;
15516;SDS011;7860;52.030;5.572;2022-07-03T03:17:24;6.95;;;3.13;;
15516;SDS011;7860;52.030;5.572;2022-07-03T03:18:26;6.19;;;2.95;;
15516;SDS011;7860;52.030;5.572;2022-07-03T03:19:24;5.78;;;3.08;;
15516;SDS011;7860;52.030;5.572;2022-07-03T03:20:26;6.25;;;2.97;;
15516;SDS011;7860;52.030;5.572;2022-07-03T03:21:26;8.29;;;3.12;;
15516;SDS011;7860;52.030;5.572;2022-07-03T03:22:28;6.16;;;2.98;;
15516;SDS011;7860;52.030;5.572;2022-07-03T03:23:30;6.41;;;3.10;;
15516;SDS011;7860;52.030;5.572;2022-07-03T03:24:25;6.81;;;3.14;;
15516;SDS011;7860;52.030;5.572;2022-07-03T03:25:26;6.78;;;2.93;;
15516;SDS011;7860;52.030;5.572;2022-07-03T03:26:26;7.90;;;2.99;;
15516;SDS011;7860;52.030;5.572;2022-07-03T03:27:26;8.21;;;3.51;;
15516;SDS011;7860;52.030;5.572;2022-07-03T03:28:26;6.30;;;2.86;;
15516;SDS011;7860;52.030;5.572;2022-07-03T03:29:26;7.39;;;2.95;;
15516;SDS011;7860;52.030;5.572;2022-07-03T03:30:26;6.55;;;2.86;;
15516;SDS011;7860;52.030;5.572;2022-07-03T03:31:26;6.27;;;2.78;;
15516;SDS011;7860;52.030;5.572;2022-07-03T03:32:26;6.06;;;2.42;;
15516;SDS011;7860;52.030;5.572;2022-07-03T03:33:26;5.30;;;2.62;;
15516;SDS011;7860;52.030;5.572;2022-07-03T03:34:26;5.01;;;2.46;;
15516;SDS011;7860;52.030;5.572;2022-07-03T03:35:26;7.06;;;2.63;;
15516;SDS011;7860;52.030;5.572;2022-07-03T03:36:26;4.73;;;2.26;;
15516;SDS011;7860;52.030;5.572;2022-07-03T03:37:26;6.96;;;2.50;;
15516;SDS011;7860;52.030;5.572;2022-07-03T03:38:26;5.57;;;2.38;;
15516;SDS011;7860;52.030;5.572;2022-07-03T03:39:26;5.85;;;2.61;;
15516;SDS011;7860;52.030;5.572;2022-07-03T03:40:26;7.38;;;2.65;;
15516;SDS011;7860;52.030;5.572;2022-07-03T03:41:26;4.91;;;2.16;;
15516;SDS011;7860;52.030;5.572;2022-07-03T03:42:26;4.33;;;2.22;;
15516;SDS011;7860;52.030;5.572;2022-07-03T03:43:27;5.69;;;2.45;;
15516;SDS011;7860;52.030;5.572;2022-07-03T03:44:27;5.16;;;2.60;;
15516;SDS011;7860;52.030;5.572;2022-07-03T03:45:27;5.63;;;2.50;;
15516;SDS011;7860;52.030;5.572;2022-07-03T03:46:27;4.61;;;2.45;;
15516;SDS011;7860;52.030;5.572;2022-07-03T03:47:27;4.86;;;2.11;;
15516;SDS011;7860;52.030;5.572;2022-07-03T03:48:27;4.92;;;2.15;;
15516;SDS011;7860;52.030;5.572;2022-07-03T03:49:27;4.83;;;2.23;;
15516;SDS011;7860;52.030;5.572;2022-07-03T03:50:27;3.91;;;2.03;;
15516;SDS011;7860;52.030;5.572;2022-07-03T03:51:27;4.16;;;1.88;;
15516;SDS011;7860;52.030;5.572;2022-07-03T03:52:27;4.03;;;2.08;;
15516;SDS011;7860;52.030;5.572;2022-07-03T03:53:27;4.48;;;2.14;;
15516;SDS011;7860;52.030;5.572;2022-07-03T03:54:27;6.97;;;2.23;;
15516;SDS011;7860;52.030;5.572;2022-07-03T03:55:27;5.59;;;2.42;;
15516;SDS011;7860;52.030;5.572;2022-07-03T03:56:27;3.93;;;2.04;;
15516;SDS011;7860;52.030;5.572;2022-07-03T03:57:27;4.71;;;2.45;;
15516;SDS011;7860;52.030;5.572;2022-07-03T03:58:28;5.06;;;2.33;;
15516;SDS011;7860;52.030;5.572;2022-07-03T03:59:27;4.86;;;2.27;;
15516;SDS011;7860;52.030;5.572;2022-07-03T04:00:27;4.02;;;2.12;;
15516;SDS011;7860;52.030;5.572;2022-07-03T04:01:27;4.61;;;2.11;;
15516;SDS011;7860;52.030;5.572;2022-07-03T04:02:28;4.57;;;2.06;;
15516;SDS011;7860;52.030;5.572;2022-07-03T04:03:28;4.88;;;2.06;;
15516;SDS011;7860;52.030;5.572;2022-07-03T04:04:28;4.31;;;2.07;;
15516;SDS011;7860;52.030;5.572;2022-07-03T04:05:28;4.01;;;2.05;;
15516;SDS011;7860;52.030;5.572;2022-07-03T04:06:28;4.77;;;2.13;;
15516;SDS011;7860;52.030;5.572;2022-07-03T04:07:28;5.49;;;2.28;;
15516;SDS011;7860;52.030;5.572;2022-07-03T04:08:28;4.51;;;2.40;;
15516;SDS011;7860;52.030;5.572;2022-07-03T04:09:28;6.56;;;2.25;;
15516;SDS011;7860;52.030;5.572;2022-07-03T04:10:28;4.09;;;2.14;;
15516;SDS011;7860;52.030;5.572;2022-07-03T04:11:28;5.02;;;2.22;;
15516;SDS011;7860;52.030;5.572;2022-07-03T04:12:28;4.70;;;2.06;;
15516;SDS011;7860;52.030;5.572;2022-07-03T04:13:28;3.40;;;1.92;;
15516;SDS011;7860;52.030;5.572;2022-07-03T04:14:28;4.62;;;1.97;;
15516;SDS011;7860;52.030;5.572;2022-07-03T04:15:28;3.85;;;1.86;;
15516;SDS011;7860;52.030;5.572;2022-07-03T04:16:28;5.65;;;2.08;;
15516;SDS011;7860;52.030;5.572;2022-07-03T04:17:29;5.22;;;2.06;;
15516;SDS011;7860;52.030;5.572;2022-07-03T04:18:29;3.01;;;1.68;;
15516;SDS011;7860;52.030;5.572;2022-07-03T04:19:29;4.10;;;1.88;;
15516;SDS011;7860;52.030;5.572;2022-07-03T04:20:29;5.07;;;1.95;;
15516;SDS011;7860;52.030;5.572;2022-07-03T04:21:29;5.33;;;1.99;;
15516;SDS011;7860;52.030;5.572;2022-07-03T04:22:29;6.12;;;1.84;;
15516;SDS011;7860;52.030;5.572;2022-07-03T04:23:29;3.76;;;1.88;;
15516;SDS011;7860;52.030;5.572;2022-07-03T04:24:29;4.60;;;2.05;;
15516;SDS011;7860;52.030;5.572;2022-07-03T04:25:29;6.56;;;2.14;;
15516;SDS011;7860;52.030;5.572;2022-07-03T04:26:29;5.31;;;2.02;;
15516;SDS011;7860;52.030;5.572;2022-07-03T04:27:29;5.79;;;2.26;;
15516;SDS011;7860;52.030;5.572;2022-07-03T04:28:29;4.73;;;2.00;;
15516;SDS011;7860;52.030;5.572;2022-07-03T04:29:29;5.80;;;2.11;;
15516;SDS011;7860;52.030;5.572;2022-07-03T04:30:29;5.48;;;2.04;;
15516;SDS011;7860;52.030;5.572;2022-07-03T04:31:29;5.85;;;2.10;;
15516;SDS011;7860;52.030;5.572;2022-07-03T04:32:29;4.94;;;2.03;;
15516;SDS011;7860;52.030;5.572;2022-07-03T04:33:29;5.60;;;2.09;;
15516;SDS011;7860;52.030;5.572;2022-07-03T04:34:30;3.88;;;1.97;;
15516;SDS011;7860;52.030;5.572;2022-07-03T04:35:30;5.48;;;2.13;;
15516;SDS011;7860;52.030;5.572;2022-07-03T04:36:30;5.09;;;2.17;;
15516;SDS011;7860;52.030;5.572;2022-07-03T04:37:30;4.72;;;1.98;;
15516;SDS011;7860;52.030;5.572;2022-07-03T04:38:30;4.55;;;1.99;;
15516;SDS011;7860;52.030;5.572;2022-07-03T04:39:30;6.08;;;2.09;;
15516;SDS011;7860;52.030;5.572;2022-07-03T04:40:30;5.32;;;1.98;;
15516;SDS011;7860;52.030;5.572;2022-07-03T04:41:30;6.08;;;2.22;;
15516;SDS011;7860;52.030;5.572;2022-07-03T04:42:30;3.79;;;1.97;;
15516;SDS011;7860;52.030;5.572;2022-07-03T04:43:30;5.81;;;2.10;;
15516;SDS011;7860;52.030;5.572;2022-07-03T04:44:30;4.97;;;1.96;;
15516;SDS011;7860;52.030;5.572;2022-07-03T04:45:30;5.13;;;2.08;;
15516;SDS011;7860;52.030;5.572;2022-07-03T04:46:30;5.42;;;2.02;;
15516;SDS011;7860;52.030;5.572;2022-07-03T04:47:30;4.93;;;2.05;;
15516;SDS011;7860;52.030;5.572;2022-07-03T04:48:31;7.02;;;2.41;;
15516;SDS011;7860;52.030;5.572;2022-07-03T04:49:30;6.97;;;2.25;;
15516;SDS011;7860;52.030;5.572;2022-07-03T04:50:30;5.66;;;2.14;;
15516;SDS011;7860;52.030;5.572;2022-07-03T04:51:30;4.97;;;2.00;;
15516;SDS011;7860;52.030;5.572;2022-07-03T04:52:31;4.65;;;2.09;;
15516;SDS011;7860;52.030;5.572;2022-07-03T04:53:31;6.36;;;2.23;;
15516;SDS011;7860;52.030;5.572;2022-07-03T04:54:31;4.92;;;2.19;;
15516;SDS011;7860;52.030;5.572;2022-07-03T04:55:31;5.42;;;2.26;;
15516;SDS011;7860;52.030;5.572;2022-07-03T04:56:31;4.34;;;2.14;;
15516;SDS011;7860;52.030;5.572;2022-07-03T04:57:31;5.40;;;2.16;;
15516;SDS011;7860;52.030;5.572;2022-07-03T04:58:31;5.40;;;2.49;;
15516;SDS011;7860;52.030;5.572;2022-07-03T04:59:31;5.47;;;2.43;;
15516;SDS011;7860;52.030;5.572;2022-07-03T05:00:31;4.79;;;2.21;;
15516;SDS011;7860;52.030;5.572;2022-07-03T05:01:31;5.29;;;2.31;;
15516;SDS011;7860;52.030;5.572;2022-07-03T05:02:31;5.63;;;2.21;;
15516;SDS011;7860;52.030;5.572;2022-07-03T05:03:31;4.66;;;2.20;;
15516;SDS011;7860;52.030;5.572;2022-07-03T05:04:31;7.37;;;2.30;;
15516;SDS011;7860;52.030;5.572;2022-07-03T05:05:31;5.86;;;2.43;;
15516;SDS011;7860;52.030;5.572;2022-07-03T05:06:31;5.09;;;2.39;;
15516;SDS011;7860;52.030;5.572;2022-07-03T05:07:31;5.59;;;2.29;;
15516;SDS011;7860;52.030;5.572;2022-07-03T05:08:31;4.84;;;2.34;;
15516;SDS011;7860;52.030;5.572;2022-07-03T05:09:31;5.48;;;2.20;;
15516;SDS011;7860;52.030;5.572;2022-07-03T05:10:32;5.40;;;2.16;;
15516;SDS011;7860;52.030;5.572;2022-07-03T05:11:32;6.67;;;2.33;;
15516;SDS011;7860;52.030;5.572;2022-07-03T05:12:32;4.83;;;2.19;;
15516;SDS011;7860;52.030;5.572;2022-07-03T05:13:32;6.71;;;2.39;;
15516;SDS011;7860;52.030;5.572;2022-07-03T05:14:32;5.11;;;2.03;;
15516;SDS011;7860;52.030;5.572;2022-07-03T05:15:32;5.31;;;2.44;;
15516;SDS011;7860;52.030;5.572;2022-07-03T05:16:32;5.55;;;2.23;;
15516;SDS011;7860;52.030;5.572;2022-07-03T05:17:33;5.47;;;2.23;;
15516;SDS011;7860;52.030;5.572;2022-07-03T05:18:32;5.93;;;2.23;;
15516;SDS011;7860;52.030;5.572;2022-07-03T05:19:32;4.39;;;2.13;;
15516;SDS011;7860;52.030;5.572;2022-07-03T05:20:32;6.23;;;2.14;;
15516;SDS011;7860;52.030;5.572;2022-07-03T05:21:32;6.99;;;2.30;;
15516;SDS011;7860;52.030;5.572;2022-07-03T05:22:32;6.23;;;2.43;;
15516;SDS011;7860;52.030;5.572;2022-07-03T05:23:32;6.30;;;2.41;;
15516;SDS011;7860;52.030;5.572;2022-07-03T05:24:32;7.52;;;2.22;;
15516;SDS011;7860;52.030;5.572;2022-07-03T05:25:33;4.94;;;2.17;;
15516;SDS011;7860;52.030;5.572;2022-07-03T05:26:33;4.18;;;2.02;;
15516;SDS011;7860;52.030;5.572;2022-07-03T05:27:35;4.94;;;2.10;;
15516;SDS011;7860;52.030;5.572;2022-07-03T05:28:34;7.61;;;2.00;;
15516;SDS011;7860;52.030;5.572;2022-07-03T05:29:34;6.58;;;2.00;;
15516;SDS011;7860;52.030;5.572;2022-07-03T05:30:34;5.57;;;2.12;;
15516;SDS011;7860;52.030;5.572;2022-07-03T05:31:34;6.10;;;2.26;;
15516;SDS011;7860;52.030;5.572;2022-07-03T05:32:34;5.28;;;2.00;;
15516;SDS011;7860;52.030;5.572;2022-07-03T05:33:34;5.37;;;1.93;;
15516;SDS011;7860;52.030;5.572;2022-07-03T05:34:34;5.59;;;2.05;;
15516;SDS011;7860;52.030;5.572;2022-07-03T05:35:34;6.32;;;2.13;;
15516;SDS011;7860;52.030;5.572;2022-07-03T05:36:34;5.40;;;2.01;;
15516;SDS011;7860;52.030;5.572;2022-07-03T05:37:34;4.67;;;1.94;;
15516;SDS011;7860;52.030;5.572;2022-07-03T05:38:34;4.44;;;2.10;;
15516;SDS011;7860;52.030;5.572;2022-07-03T05:39:34;6.07;;;1.96;;
15516;SDS011;7860;52.030;5.572;2022-07-03T05:40:34;6.07;;;1.92;;
15516;SDS011;7860;52.030;5.572;2022-07-03T05:41:34;4.13;;;1.88;;
15516;SDS011;7860;52.030;5.572;2022-07-03T05:42:34;4.86;;;1.88;;
15516;SDS011;7860;52.030;5.572;2022-07-03T05:43:35;5.73;;;1.93;;
15516;SDS011;7860;52.030;5.572;2022-07-03T05:44:34;6.21;;;1.84;;
15516;SDS011;7860;52.030;5.572;2022-07-03T05:45:35;5.02;;;1.83;;
15516;SDS011;7860;52.030;5.572;2022-07-03T05:46:35;5.28;;;2.25;;
15516;SDS011;7860;52.030;5.572;2022-07-03T05:47:35;4.23;;;1.78;;
15516;SDS011;7860;52.030;5.572;2022-07-03T05:48:35;4.05;;;1.75;;
15516;SDS011;7860;52.030;5.572;2022-07-03T05:49:35;5.25;;;1.71;;
15516;SDS011;7860;52.030;5.572;2022-07-03T05:50:35;5.94;;;1.92;;
15516;SDS011;7860;52.030;5.572;2022-07-03T05:51:35;4.49;;;1.80;;
15516;SDS011;7860;52.030;5.572;2022-07-03T05:52:35;5.88;;;2.21;;
15516;SDS011;7860;52.030;5.572;2022-07-03T05:53:35;5.18;;;1.68;;
15516;SDS011;7860;52.030;5.572;2022-07-03T05:54:35;5.43;;;1.71;;
15516;SDS011;7860;52.030;5.572;2022-07-03T05:55:35;4.17;;;1.75;;
15516;SDS011;7860;52.030;5.572;2022-07-03T05:56:35;4.44;;;1.65;;
15516;SDS011;7860;52.030;5.572;2022-07-03T05:57:35;4.66;;;1.75;;
15516;SDS011;7860;52.030;5.572;2022-07-03T05:58:35;3.30;;;1.59;;
15516;SDS011;7860;52.030;5.572;2022-07-03T05:59:36;5.41;;;1.73;;
15516;SDS011;7860;52.030;5.572;2022-07-03T06:00:36;4.57;;;1.64;;
15516;SDS011;7860;52.030;5.572;2022-07-03T06:01:36;4.86;;;1.72;;
15516;SDS011;7860;52.030;5.572;2022-07-03T06:02:36;5.40;;;1.86;;
15516;SDS011;7860;52.030;5.572;2022-07-03T06:03:36;4.14;;;1.60;;
15516;SDS011;7860;52.030;5.572;2022-07-03T06:04:36;7.30;;;1.99;;
15516;SDS011;7860;52.030;5.572;2022-07-03T06:05:36;6.71;;;1.76;;
15516;SDS011;7860;52.030;5.572;2022-07-03T06:06:36;5.18;;;1.78;;